sensor_id;sensor_type;location;lat;lon;timestamp;P1;durP1;ratioP1;P2;durP2;ratioP2
68050;SDS011;54839;51.364;7.246;2023-02-22T00:00:34;100.27;;;27.80;;
68050;SDS011;54839;51.364;7.246;2023-02-22T00:03:08;95.23;;;25.63;;
68050;SDS011;54839;51.364;7.246;2023-02-22T00:05:37;118.87;;;30.70;;
68050;SDS011;54839;51.364;7.246;2023-02-22T00:08:09;67.60;;;23.40;;
68050;SDS011;54839;51.364;7.246;2023-02-22T00:10:35;71.63;;;24.97;;
68050;SDS011;54839;51.364;7.246;2023-02-22T00:13:05;80.37;;;26.93;;
68050;SDS011;54839;51.364;7.246;2023-02-22T00:15:32;52.63;;;22.37;;
68050;SDS011;54839;51.364;7.246;2023-02-22T00:17:59;49.50;;;21.83;;
68050;SDS011;54839;51.364;7.246;2023-02-22T00:20:24;46.00;;;21.70;;
68050;SDS011;54839;51.364;7.246;2023-02-22T00:22:51;45.00;;;20.77;;
68050;SDS011;54839;51.364;7.246;2023-02-22T00:25:18;41.63;;;20.70;;
68050;SDS011;54839;51.364;7.246;2023-02-22T00:27:45;35.17;;;19.17;;
68050;SDS011;54839;51.364;7.246;2023-02-22T00:30:16;65.90;;;22.00;;
68050;SDS011;54839;51.364;7.246;2023-02-22T00:32:47;36.17;;;18.90;;
68050;SDS011;54839;51.364;7.246;2023-02-22T00:35:14;51.93;;;21.43;;
68050;SDS011;54839;51.364;7.246;2023-02-22T00:37:40;160.63;;;30.83;;
68050;SDS011;54839;51.364;7.246;2023-02-22T00:40:09;84.13;;;23.17;;
68050;SDS011;54839;51.364;7.246;2023-02-22T00:42:36;75.93;;;21.63;;
68050;SDS011;54839;51.364;7.246;2023-02-22T00:45:03;52.77;;;17.83;;
68050;SDS011;54839;51.364;7.246;2023-02-22T00:47:29;68.23;;;18.10;;
68050;SDS011;54839;51.364;7.246;2023-02-22T00:49:55;51.63;;;17.60;;
68050;SDS011;54839;51.364;7.246;2023-02-22T00:52:20;126.47;;;24.93;;
68050;SDS011;54839;51.364;7.246;2023-02-22T00:54:46;74.43;;;19.10;;
68050;SDS011;54839;51.364;7.246;2023-02-22T00:57:11;174.20;;;27.73;;
68050;SDS011;54839;51.364;7.246;2023-02-22T00:59:37;164.27;;;25.77;;
68050;SDS011;54839;51.364;7.246;2023-02-22T01:02:03;119.77;;;23.17;;
68050;SDS011;54839;51.364;7.246;2023-02-22T01:04:28;58.10;;;17.77;;
68050;SDS011;54839;51.364;7.246;2023-02-22T01:06:54;53.97;;;17.67;;
68050;SDS011;54839;51.364;7.246;2023-02-22T01:09:20;56.63;;;15.50;;
68050;SDS011;54839;51.364;7.246;2023-02-22T01:11:46;50.30;;;18.70;;
68050;SDS011;54839;51.364;7.246;2023-02-22T01:14:13;94.77;;;19.80;;
68050;SDS011;54839;51.364;7.246;2023-02-22T01:16:38;90.27;;;19.53;;
68050;SDS011;54839;51.364;7.246;2023-02-22T01:19:04;133.10;;;21.83;;
68050;SDS011;54839;51.364;7.246;2023-02-22T01:21:30;150.97;;;22.80;;
68050;SDS011;54839;51.364;7.246;2023-02-22T01:23:56;220.73;;;29.37;;
68050;SDS011;54839;51.364;7.246;2023-02-22T01:26:21;167.53;;;21.90;;
68050;SDS011;54839;51.364;7.246;2023-02-22T01:28:47;88.67;;;18.50;;
68050;SDS011;54839;51.364;7.246;2023-02-22T01:31:12;74.03;;;17.00;;
68050;SDS011;54839;51.364;7.246;2023-02-22T01:33:39;64.00;;;17.70;;
68050;SDS011;54839;51.364;7.246;2023-02-22T01:36:04;98.80;;;17.97;;
68050;SDS011;54839;51.364;7.246;2023-02-22T01:38:35;52.17;;;16.53;;
68050;SDS011;54839;51.364;7.246;2023-02-22T01:41:01;26.13;;;14.87;;
68050;SDS011;54839;51.364;7.246;2023-02-22T01:43:29;17.70;;;12.50;;
68050;SDS011;54839;51.364;7.246;2023-02-22T01:48:56;16.23;;;11.70;;
68050;SDS011;54839;51.364;7.246;2023-02-22T01:51:29;14.10;;;11.57;;
68050;SDS011;54839;51.364;7.246;2023-02-22T01:56:39;16.63;;;11.50;;
68050;SDS011;54839;51.364;7.246;2023-02-22T01:59:14;18.30;;;12.30;;
68050;SDS011;54839;51.364;7.246;2023-02-22T02:01:41;22.53;;;10.93;;
68050;SDS011;54839;51.364;7.246;2023-02-22T02:04:12;17.23;;;12.50;;
68050;SDS011;54839;51.364;7.246;2023-02-22T02:06:41;17.93;;;12.10;;
68050;SDS011;54839;51.364;7.246;2023-02-22T02:12:00;18.43;;;12.20;;
68050;SDS011;54839;51.364;7.246;2023-02-22T02:14:27;16.93;;;11.77;;
68050;SDS011;54839;51.364;7.246;2023-02-22T02:16:55;18.20;;;12.07;;
68050;SDS011;54839;51.364;7.246;2023-02-22T02:24:49;15.40;;;10.17;;
68050;SDS011;54839;51.364;7.246;2023-02-22T02:30:55;14.20;;;11.20;;
68050;SDS011;54839;51.364;7.246;2023-02-22T02:33:44;16.77;;;11.00;;
68050;SDS011;54839;51.364;7.246;2023-02-22T02:36:28;15.73;;;12.27;;
68050;SDS011;54839;51.364;7.246;2023-02-22T02:41:34;15.80;;;11.40;;
68050;SDS011;54839;51.364;7.246;2023-02-22T02:44:17;17.10;;;11.37;;
68050;SDS011;54839;51.364;7.246;2023-02-22T02:47:01;16.70;;;11.10;;
68050;SDS011;54839;51.364;7.246;2023-02-22T02:49:45;21.07;;;11.57;;
68050;SDS011;54839;51.364;7.246;2023-02-22T02:52:17;21.23;;;13.10;;
68050;SDS011;54839;51.364;7.246;2023-02-22T02:54:45;14.47;;;11.00;;
68050;SDS011;54839;51.364;7.246;2023-02-22T02:57:11;28.73;;;15.63;;
68050;SDS011;54839;51.364;7.246;2023-02-22T02:59:37;29.87;;;15.00;;
68050;SDS011;54839;51.364;7.246;2023-02-22T03:02:09;28.40;;;13.60;;
68050;SDS011;54839;51.364;7.246;2023-02-22T03:11:09;29.03;;;13.90;;
68050;SDS011;54839;51.364;7.246;2023-02-22T03:13:24;42.27;;;14.93;;
68050;SDS011;54839;51.364;7.246;2023-02-22T03:16:11;84.93;;;18.87;;
68050;SDS011;54839;51.364;7.246;2023-02-22T03:18:48;65.77;;;17.23;;
68050;SDS011;54839;51.364;7.246;2023-02-22T03:21:25;67.27;;;15.63;;
68050;SDS011;54839;51.364;7.246;2023-02-22T03:26:57;47.13;;;13.87;;
68050;SDS011;54839;51.364;7.246;2023-02-22T03:29:29;84.37;;;16.47;;
68050;SDS011;54839;51.364;7.246;2023-02-22T03:31:59;71.10;;;16.00;;
68050;SDS011;54839;51.364;7.246;2023-02-22T03:34:28;63.50;;;15.47;;
68050;SDS011;54839;51.364;7.246;2023-02-22T03:36:58;77.93;;;17.93;;
68050;SDS011;54839;51.364;7.246;2023-02-22T03:39:28;29.50;;;14.17;;
68050;SDS011;54839;51.364;7.246;2023-02-22T03:41:56;52.80;;;14.63;;
68050;SDS011;54839;51.364;7.246;2023-02-22T03:44:28;24.90;;;13.90;;
68050;SDS011;54839;51.364;7.246;2023-02-22T03:46:56;22.63;;;11.50;;
68050;SDS011;54839;51.364;7.246;2023-02-22T03:49:34;17.67;;;11.30;;
68050;SDS011;54839;51.364;7.246;2023-02-22T03:52:13;16.20;;;11.07;;
68050;SDS011;54839;51.364;7.246;2023-02-22T03:54:39;12.80;;;10.03;;
68050;SDS011;54839;51.364;7.246;2023-02-22T03:59:34;16.70;;;10.47;;
68050;SDS011;54839;51.364;7.246;2023-02-22T04:02:00;16.07;;;10.77;;
68050;SDS011;54839;51.364;7.246;2023-02-22T04:04:26;20.90;;;11.30;;
68050;SDS011;54839;51.364;7.246;2023-02-22T04:06:51;16.87;;;10.77;;
68050;SDS011;54839;51.364;7.246;2023-02-22T04:09:17;13.70;;;10.50;;
68050;SDS011;54839;51.364;7.246;2023-02-22T04:11:44;16.80;;;11.07;;
68050;SDS011;54839;51.364;7.246;2023-02-22T04:14:09;15.83;;;11.40;;
68050;SDS011;54839;51.364;7.246;2023-02-22T04:16:35;16.17;;;9.43;;
68050;SDS011;54839;51.364;7.246;2023-02-22T04:19:01;16.93;;;10.63;;
68050;SDS011;54839;51.364;7.246;2023-02-22T04:21:26;12.37;;;8.70;;
68050;SDS011;54839;51.364;7.246;2023-02-22T04:23:52;16.77;;;9.77;;
68050;SDS011;54839;51.364;7.246;2023-02-22T04:26:17;12.80;;;8.87;;
68050;SDS011;54839;51.364;7.246;2023-02-22T04:28:43;13.60;;;8.90;;
68050;SDS011;54839;51.364;7.246;2023-02-22T04:31:08;15.27;;;9.77;;
68050;SDS011;54839;51.364;7.246;2023-02-22T04:33:34;13.40;;;9.00;;
68050;SDS011;54839;51.364;7.246;2023-02-22T04:36:00;14.43;;;9.90;;
68050;SDS011;54839;51.364;7.246;2023-02-22T04:38:25;13.77;;;9.17;;
68050;SDS011;54839;51.364;7.246;2023-02-22T04:40:52;12.20;;;8.70;;
68050;SDS011;54839;51.364;7.246;2023-02-22T04:43:18;9.57;;;7.73;;
68050;SDS011;54839;51.364;7.246;2023-02-22T04:45:43;12.70;;;9.50;;
68050;SDS011;54839;51.364;7.246;2023-02-22T04:48:09;14.20;;;9.07;;
68050;SDS011;54839;51.364;7.246;2023-02-22T04:50:35;11.90;;;9.10;;
68050;SDS011;54839;51.364;7.246;2023-02-22T04:53:01;13.80;;;8.70;;
68050;SDS011;54839;51.364;7.246;2023-02-22T04:55:27;15.47;;;8.63;;
68050;SDS011;54839;51.364;7.246;2023-02-22T04:57:53;14.80;;;10.13;;
68050;SDS011;54839;51.364;7.246;2023-02-22T05:00:19;14.17;;;10.33;;
68050;SDS011;54839;51.364;7.246;2023-02-22T05:02:48;15.57;;;9.43;;
68050;SDS011;54839;51.364;7.246;2023-02-22T05:05:15;13.97;;;9.80;;
68050;SDS011;54839;51.364;7.246;2023-02-22T05:07:41;12.63;;;8.70;;
68050;SDS011;54839;51.364;7.246;2023-02-22T05:10:08;13.63;;;9.27;;
68050;SDS011;54839;51.364;7.246;2023-02-22T05:12:34;13.93;;;9.07;;
68050;SDS011;54839;51.364;7.246;2023-02-22T05:15:00;14.13;;;9.23;;
68050;SDS011;54839;51.364;7.246;2023-02-22T05:17:26;15.97;;;10.00;;
68050;SDS011;54839;51.364;7.246;2023-02-22T05:19:51;15.27;;;11.07;;
68050;SDS011;54839;51.364;7.246;2023-02-22T05:22:17;13.80;;;9.87;;
68050;SDS011;54839;51.364;7.246;2023-02-22T05:24:42;17.07;;;10.47;;
68050;SDS011;54839;51.364;7.246;2023-02-22T05:27:08;15.40;;;10.40;;
68050;SDS011;54839;51.364;7.246;2023-02-22T05:29:34;17.93;;;10.50;;
68050;SDS011;54839;51.364;7.246;2023-02-22T05:32:02;15.97;;;10.57;;
68050;SDS011;54839;51.364;7.246;2023-02-22T05:34:28;13.50;;;9.33;;
68050;SDS011;54839;51.364;7.246;2023-02-22T05:36:55;16.47;;;10.50;;
68050;SDS011;54839;51.364;7.246;2023-02-22T05:39:20;16.40;;;10.40;;
68050;SDS011;54839;51.364;7.246;2023-02-22T05:41:46;15.30;;;10.57;;
68050;SDS011;54839;51.364;7.246;2023-02-22T05:44:12;16.90;;;10.83;;
68050;SDS011;54839;51.364;7.246;2023-02-22T05:46:38;12.20;;;8.80;;
68050;SDS011;54839;51.364;7.246;2023-02-22T05:49:03;13.83;;;10.77;;
68050;SDS011;54839;51.364;7.246;2023-02-22T05:51:29;22.53;;;10.90;;
68050;SDS011;54839;51.364;7.246;2023-02-22T05:53:54;11.83;;;9.77;;
68050;SDS011;54839;51.364;7.246;2023-02-22T05:56:21;16.50;;;10.63;;
68050;SDS011;54839;51.364;7.246;2023-02-22T05:58:48;20.00;;;10.47;;
68050;SDS011;54839;51.364;7.246;2023-02-22T06:01:14;17.73;;;9.57;;
68050;SDS011;54839;51.364;7.246;2023-02-22T06:03:40;14.13;;;9.43;;
68050;SDS011;54839;51.364;7.246;2023-02-22T06:06:05;14.47;;;9.20;;
68050;SDS011;54839;51.364;7.246;2023-02-22T06:08:31;14.27;;;9.63;;
68050;SDS011;54839;51.364;7.246;2023-02-22T06:10:56;14.73;;;10.47;;
68050;SDS011;54839;51.364;7.246;2023-02-22T06:13:22;14.10;;;10.40;;
68050;SDS011;54839;51.364;7.246;2023-02-22T06:15:47;17.00;;;10.70;;
68050;SDS011;54839;51.364;7.246;2023-02-22T06:18:13;15.77;;;10.50;;
68050;SDS011;54839;51.364;7.246;2023-02-22T06:20:38;16.67;;;11.67;;
68050;SDS011;54839;51.364;7.246;2023-02-22T06:23:05;19.53;;;12.33;;
68050;SDS011;54839;51.364;7.246;2023-02-22T06:25:31;25.85;;;13.48;;
68050;SDS011;54839;51.364;7.246;2023-02-22T06:27:57;21.80;;;12.40;;
68050;SDS011;54839;51.364;7.246;2023-02-22T06:30:24;16.53;;;11.70;;
68050;SDS011;54839;51.364;7.246;2023-02-22T06:32:50;24.80;;;15.73;;
68050;SDS011;54839;51.364;7.246;2023-02-22T06:35:16;22.43;;;14.13;;
68050;SDS011;54839;51.364;7.246;2023-02-22T06:37:43;22.87;;;14.20;;
68050;SDS011;54839;51.364;7.246;2023-02-22T06:40:09;27.73;;;16.83;;
68050;SDS011;54839;51.364;7.246;2023-02-22T06:42:35;25.03;;;18.10;;
68050;SDS011;54839;51.364;7.246;2023-02-22T06:45:02;28.13;;;18.10;;
68050;SDS011;54839;51.364;7.246;2023-02-22T06:47:28;24.53;;;17.50;;
68050;SDS011;54839;51.364;7.246;2023-02-22T06:49:54;27.10;;;17.63;;
68050;SDS011;54839;51.364;7.246;2023-02-22T06:52:21;24.63;;;18.43;;
68050;SDS011;54839;51.364;7.246;2023-02-22T06:54:47;29.23;;;18.50;;
68050;SDS011;54839;51.364;7.246;2023-02-22T06:57:13;29.43;;;19.60;;
68050;SDS011;54839;51.364;7.246;2023-02-22T06:59:39;31.90;;;18.97;;
68050;SDS011;54839;51.364;7.246;2023-02-22T07:02:05;29.40;;;18.40;;
68050;SDS011;54839;51.364;7.246;2023-02-22T07:04:30;29.53;;;18.80;;
68050;SDS011;54839;51.364;7.246;2023-02-22T07:06:56;30.70;;;19.80;;
68050;SDS011;54839;51.364;7.246;2023-02-22T07:09:21;29.23;;;18.00;;
68050;SDS011;54839;51.364;7.246;2023-02-22T07:11:47;23.53;;;18.53;;
68050;SDS011;54839;51.364;7.246;2023-02-22T07:14:15;32.67;;;18.57;;
68050;SDS011;54839;51.364;7.246;2023-02-22T07:16:41;30.33;;;18.23;;
68050;SDS011;54839;51.364;7.246;2023-02-22T07:19:06;28.20;;;19.37;;
68050;SDS011;54839;51.364;7.246;2023-02-22T07:21:32;25.50;;;18.17;;
68050;SDS011;54839;51.364;7.246;2023-02-22T07:23:59;24.43;;;16.83;;
68050;SDS011;54839;51.364;7.246;2023-02-22T07:26:24;23.30;;;17.47;;
68050;SDS011;54839;51.364;7.246;2023-02-22T07:28:51;33.67;;;18.67;;
68050;SDS011;54839;51.364;7.246;2023-02-22T07:31:17;25.30;;;16.80;;
68050;SDS011;54839;51.364;7.246;2023-02-22T07:33:44;25.70;;;17.67;;
68050;SDS011;54839;51.364;7.246;2023-02-22T07:36:10;25.13;;;15.53;;
68050;SDS011;54839;51.364;7.246;2023-02-22T07:38:38;24.70;;;16.77;;
68050;SDS011;54839;51.364;7.246;2023-02-22T07:41:04;28.53;;;17.23;;
68050;SDS011;54839;51.364;7.246;2023-02-22T07:43:30;20.27;;;14.90;;
68050;SDS011;54839;51.364;7.246;2023-02-22T07:45:56;21.67;;;15.67;;
68050;SDS011;54839;51.364;7.246;2023-02-22T07:48:26;25.57;;;16.63;;
68050;SDS011;54839;51.364;7.246;2023-02-22T07:50:53;28.43;;;16.90;;
68050;SDS011;54839;51.364;7.246;2023-02-22T07:53:23;22.70;;;14.93;;
68050;SDS011;54839;51.364;7.246;2023-02-22T07:55:54;24.60;;;13.50;;
68050;SDS011;54839;51.364;7.246;2023-02-22T07:58:25;21.57;;;15.03;;
68050;SDS011;54839;51.364;7.246;2023-02-22T08:00:52;31.27;;;16.27;;
68050;SDS011;54839;51.364;7.246;2023-02-22T08:03:19;43.57;;;17.90;;
68050;SDS011;54839;51.364;7.246;2023-02-22T08:05:46;26.93;;;15.27;;
68050;SDS011;54839;51.364;7.246;2023-02-22T08:08:14;24.33;;;16.20;;
68050;SDS011;54839;51.364;7.246;2023-02-22T08:10:40;28.53;;;15.43;;
68050;SDS011;54839;51.364;7.246;2023-02-22T08:13:05;22.23;;;15.57;;
68050;SDS011;54839;51.364;7.246;2023-02-22T08:15:35;28.10;;;14.47;;
68050;SDS011;54839;51.364;7.246;2023-02-22T08:18:05;22.60;;;14.13;;
68050;SDS011;54839;51.364;7.246;2023-02-22T08:20:34;24.90;;;16.40;;
68050;SDS011;54839;51.364;7.246;2023-02-22T08:23:00;28.23;;;16.93;;
68050;SDS011;54839;51.364;7.246;2023-02-22T08:25:27;24.67;;;16.20;;
68050;SDS011;54839;51.364;7.246;2023-02-22T08:28:00;29.37;;;14.80;;
68050;SDS011;54839;51.364;7.246;2023-02-22T08:30:30;20.80;;;13.83;;
68050;SDS011;54839;51.364;7.246;2023-02-22T08:32:59;21.70;;;12.77;;
68050;SDS011;54839;51.364;7.246;2023-02-22T08:35:26;21.10;;;13.20;;
68050;SDS011;54839;51.364;7.246;2023-02-22T08:37:54;21.83;;;12.90;;
68050;SDS011;54839;51.364;7.246;2023-02-22T08:40:23;20.30;;;13.80;;
68050;SDS011;54839;51.364;7.246;2023-02-22T08:42:51;21.03;;;10.63;;
68050;SDS011;54839;51.364;7.246;2023-02-22T08:45:17;27.17;;;14.20;;
68050;SDS011;54839;51.364;7.246;2023-02-22T08:47:43;17.80;;;12.13;;
68050;SDS011;54839;51.364;7.246;2023-02-22T08:50:14;22.00;;;13.17;;
68050;SDS011;54839;51.364;7.246;2023-02-22T08:52:42;16.47;;;11.47;;
68050;SDS011;54839;51.364;7.246;2023-02-22T08:55:08;21.23;;;13.13;;
68050;SDS011;54839;51.364;7.246;2023-02-22T08:57:33;22.50;;;12.67;;
68050;SDS011;54839;51.364;7.246;2023-02-22T08:59:59;17.50;;;12.07;;
68050;SDS011;54839;51.364;7.246;2023-02-22T09:02:24;23.97;;;12.77;;
68050;SDS011;54839;51.364;7.246;2023-02-22T09:04:50;25.03;;;12.83;;
68050;SDS011;54839;51.364;7.246;2023-02-22T09:07:16;22.43;;;11.37;;
68050;SDS011;54839;51.364;7.246;2023-02-22T09:09:42;20.60;;;12.07;;
68050;SDS011;54839;51.364;7.246;2023-02-22T09:12:08;18.00;;;11.90;;
68050;SDS011;54839;51.364;7.246;2023-02-22T09:14:34;17.67;;;9.73;;
68050;SDS011;54839;51.364;7.246;2023-02-22T09:17:00;19.33;;;11.03;;
68050;SDS011;54839;51.364;7.246;2023-02-22T09:19:26;16.67;;;10.80;;
68050;SDS011;54839;51.364;7.246;2023-02-22T09:21:55;18.30;;;11.23;;
68050;SDS011;54839;51.364;7.246;2023-02-22T09:24:22;22.57;;;9.90;;
68050;SDS011;54839;51.364;7.246;2023-02-22T09:26:48;22.17;;;12.00;;
68050;SDS011;54839;51.364;7.246;2023-02-22T09:29:20;16.50;;;10.37;;
68050;SDS011;54839;51.364;7.246;2023-02-22T09:31:48;11.97;;;9.40;;
68050;SDS011;54839;51.364;7.246;2023-02-22T09:34:15;16.00;;;11.33;;
68050;SDS011;54839;51.364;7.246;2023-02-22T09:36:44;20.10;;;10.50;;
68050;SDS011;54839;51.364;7.246;2023-02-22T09:39:11;17.20;;;9.53;;
68050;SDS011;54839;51.364;7.246;2023-02-22T09:47:00;20.90;;;11.27;;
68050;SDS011;54839;51.364;7.246;2023-02-22T09:49:31;14.80;;;9.37;;
68050;SDS011;54839;51.364;7.246;2023-02-22T09:54:51;31.70;;;10.17;;
68050;SDS011;54839;51.364;7.246;2023-02-22T09:57:33;20.23;;;10.17;;
68050;SDS011;54839;51.364;7.246;2023-02-22T10:00:05;12.30;;;8.10;;
68050;SDS011;54839;51.364;7.246;2023-02-22T10:02:39;14.60;;;8.80;;
68050;SDS011;54839;51.364;7.246;2023-02-22T10:05:31;12.27;;;7.90;;
68050;SDS011;54839;51.364;7.246;2023-02-22T10:08:05;26.63;;;10.80;;
68050;SDS011;54839;51.364;7.246;2023-02-22T10:10:43;16.83;;;8.10;;
68050;SDS011;54839;51.364;7.246;2023-02-22T10:18:46;10.60;;;7.17;;
68050;SDS011;54839;51.364;7.246;2023-02-22T10:21:23;12.00;;;7.93;;
68050;SDS011;54839;51.364;7.246;2023-02-22T10:24:06;10.70;;;7.87;;
68050;SDS011;54839;51.364;7.246;2023-02-22T10:26:55;10.00;;;6.87;;
68050;SDS011;54839;51.364;7.246;2023-02-22T10:29:33;20.97;;;8.40;;
68050;SDS011;54839;51.364;7.246;2023-02-22T10:32:04;14.30;;;7.97;;
68050;SDS011;54839;51.364;7.246;2023-02-22T10:34:36;16.70;;;8.43;;
68050;SDS011;54839;51.364;7.246;2023-02-22T10:39:53;13.27;;;8.57;;
68050;SDS011;54839;51.364;7.246;2023-02-22T10:42:29;9.33;;;7.23;;
68050;SDS011;54839;51.364;7.246;2023-02-22T10:44:55;11.17;;;7.37;;
68050;SDS011;54839;51.364;7.246;2023-02-22T10:47:20;8.80;;;6.67;;
68050;SDS011;54839;51.364;7.246;2023-02-22T10:49:51;15.33;;;7.87;;
68050;SDS011;54839;51.364;7.246;2023-02-22T10:54:55;12.80;;;8.33;;
68050;SDS011;54839;51.364;7.246;2023-02-22T10:57:25;18.23;;;7.97;;
68050;SDS011;54839;51.364;7.246;2023-02-22T10:59:53;9.57;;;8.27;;
68050;SDS011;54839;51.364;7.246;2023-02-22T11:02:32;22.67;;;7.97;;
68050;SDS011;54839;51.364;7.246;2023-02-22T11:05:00;11.03;;;7.57;;
68050;SDS011;54839;51.364;7.246;2023-02-22T11:10:03;11.47;;;7.40;;
68050;SDS011;54839;51.364;7.246;2023-02-22T11:12:32;12.50;;;7.80;;
68050;SDS011;54839;51.364;7.246;2023-02-22T11:17:40;13.70;;;6.90;;
68050;SDS011;54839;51.364;7.246;2023-02-22T11:20:17;13.53;;;8.53;;
68050;SDS011;54839;51.364;7.246;2023-02-22T11:22:44;11.67;;;8.43;;
68050;SDS011;54839;51.364;7.246;2023-02-22T11:25:16;12.40;;;8.43;;
68050;SDS011;54839;51.364;7.246;2023-02-22T11:27:44;11.60;;;8.07;;
68050;SDS011;54839;51.364;7.246;2023-02-22T11:30:17;14.27;;;8.40;;
68050;SDS011;54839;51.364;7.246;2023-02-22T11:32:51;12.50;;;8.03;;
68050;SDS011;54839;51.364;7.246;2023-02-22T11:37:52;10.90;;;8.17;;
68050;SDS011;54839;51.364;7.246;2023-02-22T11:40:19;10.37;;;7.13;;
68050;SDS011;54839;51.364;7.246;2023-02-22T11:42:46;13.20;;;8.40;;
68050;SDS011;54839;51.364;7.246;2023-02-22T11:45:17;13.10;;;8.30;;
68050;SDS011;54839;51.364;7.246;2023-02-22T11:56:49;13.80;;;7.27;;
68050;SDS011;54839;51.364;7.246;2023-02-22T12:21:35;17.23;;;5.50;;
68050;SDS011;54839;51.364;7.246;2023-02-22T12:24:07;8.37;;;5.90;;
68050;SDS011;54839;51.364;7.246;2023-02-22T12:26:47;13.00;;;6.00;;
68050;SDS011;54839;51.364;7.246;2023-02-22T12:29:32;9.90;;;6.60;;
68050;SDS011;54839;51.364;7.246;2023-02-22T12:35:23;11.87;;;6.17;;
68050;SDS011;54839;51.364;7.246;2023-02-22T12:37:57;10.63;;;6.77;;
68050;SDS011;54839;51.364;7.246;2023-02-22T12:45:49;25.73;;;8.73;;
68050;SDS011;54839;51.364;7.246;2023-02-22T12:48:45;7.93;;;5.43;;
68050;SDS011;54839;51.364;7.246;2023-02-22T12:59:49;10.87;;;5.93;;
68050;SDS011;54839;51.364;7.246;2023-02-22T13:03:03;12.20;;;6.60;;
68050;SDS011;54839;51.364;7.246;2023-02-22T13:05:16;7.43;;;6.00;;
68050;SDS011;54839;51.364;7.246;2023-02-22T13:07:48;9.73;;;6.20;;
68050;SDS011;54839;51.364;7.246;2023-02-22T13:13:10;14.00;;;7.30;;
68050;SDS011;54839;51.364;7.246;2023-02-22T13:26:59;19.63;;;7.83;;
68050;SDS011;54839;51.364;7.246;2023-02-22T13:29:33;8.20;;;5.00;;
68050;SDS011;54839;51.364;7.246;2023-02-22T13:32:06;6.97;;;5.20;;
68050;SDS011;54839;51.364;7.246;2023-02-22T13:49:46;19.13;;;6.80;;
68050;SDS011;54839;51.364;7.246;2023-02-22T13:52:21;6.70;;;6.00;;
68050;SDS011;54839;51.364;7.246;2023-02-22T13:54:53;11.93;;;6.60;;
68050;SDS011;54839;51.364;7.246;2023-02-22T13:57:25;6.03;;;5.37;;
68050;SDS011;54839;51.364;7.246;2023-02-22T14:10:47;5.67;;;5.10;;
68050;SDS011;54839;51.364;7.246;2023-02-22T14:13:15;8.73;;;4.27;;
68050;SDS011;54839;51.364;7.246;2023-02-22T14:16:15;7.30;;;5.57;;
68050;SDS011;54839;51.364;7.246;2023-02-22T14:18:42;10.93;;;5.40;;
68050;SDS011;54839;51.364;7.246;2023-02-22T14:21:11;7.90;;;5.83;;
68050;SDS011;54839;51.364;7.246;2023-02-22T14:23:45;10.57;;;6.00;;
68050;SDS011;54839;51.364;7.246;2023-02-22T14:26:23;8.90;;;6.63;;
68050;SDS011;54839;51.364;7.246;2023-02-22T14:28:54;8.33;;;5.27;;
68050;SDS011;54839;51.364;7.246;2023-02-22T14:31:26;8.70;;;5.80;;
68050;SDS011;54839;51.364;7.246;2023-02-22T14:34:16;8.20;;;4.90;;
68050;SDS011;54839;51.364;7.246;2023-02-22T14:39:23;7.73;;;6.03;;
68050;SDS011;54839;51.364;7.246;2023-02-22T14:42:13;9.93;;;5.80;;
68050;SDS011;54839;51.364;7.246;2023-02-22T14:47:26;13.03;;;5.77;;
68050;SDS011;54839;51.364;7.246;2023-02-22T14:49:59;11.03;;;6.00;;
68050;SDS011;54839;51.364;7.246;2023-02-22T14:52:30;9.53;;;6.23;;
68050;SDS011;54839;51.364;7.246;2023-02-22T14:55:05;7.10;;;5.20;;
68050;SDS011;54839;51.364;7.246;2023-02-22T14:57:52;9.63;;;6.33;;
68050;SDS011;54839;51.364;7.246;2023-02-22T15:00:20;8.83;;;6.37;;
68050;SDS011;54839;51.364;7.246;2023-02-22T15:02:55;30.13;;;7.37;;
68050;SDS011;54839;51.364;7.246;2023-02-22T15:05:23;8.50;;;6.17;;
68050;SDS011;54839;51.364;7.246;2023-02-22T15:07:58;6.60;;;5.77;;
68050;SDS011;54839;51.364;7.246;2023-02-22T15:10:28;11.60;;;6.27;;
68050;SDS011;54839;51.364;7.246;2023-02-22T15:13:03;9.57;;;6.60;;
68050;SDS011;54839;51.364;7.246;2023-02-22T15:15:34;11.53;;;6.27;;
68050;SDS011;54839;51.364;7.246;2023-02-22T15:21:09;12.70;;;7.03;;
68050;SDS011;54839;51.364;7.246;2023-02-22T15:23:43;9.00;;;5.80;;
68050;SDS011;54839;51.364;7.246;2023-02-22T15:26:16;6.77;;;5.97;;
68050;SDS011;54839;51.364;7.246;2023-02-22T15:28:52;11.20;;;6.60;;
68050;SDS011;54839;51.364;7.246;2023-02-22T15:36:40;9.10;;;6.83;;
68050;SDS011;54839;51.364;7.246;2023-02-22T15:39:23;12.67;;;7.07;;
68050;SDS011;54839;51.364;7.246;2023-02-22T15:42:26;8.87;;;6.93;;
68050;SDS011;54839;51.364;7.246;2023-02-22T15:44:48;7.70;;;6.67;;
68050;SDS011;54839;51.364;7.246;2023-02-22T15:49:44;13.13;;;7.13;;
68050;SDS011;54839;51.364;7.246;2023-02-22T15:52:20;7.80;;;7.00;;
68050;SDS011;54839;51.364;7.246;2023-02-22T15:54:50;10.07;;;7.90;;
68050;SDS011;54839;51.364;7.246;2023-02-22T15:57:17;10.80;;;7.67;;
68050;SDS011;54839;51.364;7.246;2023-02-22T15:59:47;13.57;;;8.97;;
68050;SDS011;54839;51.364;7.246;2023-02-22T16:02:38;10.43;;;8.40;;
68050;SDS011;54839;51.364;7.246;2023-02-22T16:05:07;10.77;;;8.10;;
68050;SDS011;54839;51.364;7.246;2023-02-22T16:07:37;9.60;;;8.50;;
68050;SDS011;54839;51.364;7.246;2023-02-22T16:10:16;13.90;;;7.87;;
68050;SDS011;54839;51.364;7.246;2023-02-22T16:12:46;10.53;;;8.27;;
68050;SDS011;54839;51.364;7.246;2023-02-22T16:15:18;14.37;;;8.73;;
68050;SDS011;54839;51.364;7.246;2023-02-22T16:17:44;11.13;;;8.40;;
68050;SDS011;54839;51.364;7.246;2023-02-22T16:22:36;9.27;;;8.37;;
68050;SDS011;54839;51.364;7.246;2023-02-22T16:27:43;12.73;;;8.90;;
68050;SDS011;54839;51.364;7.246;2023-02-22T16:32:42;13.43;;;8.67;;
68050;SDS011;54839;51.364;7.246;2023-02-22T16:35:08;12.10;;;10.00;;
68050;SDS011;54839;51.364;7.246;2023-02-22T16:37:44;11.67;;;10.03;;
68050;SDS011;54839;51.364;7.246;2023-02-22T16:40:12;13.03;;;11.07;;
68050;SDS011;54839;51.364;7.246;2023-02-22T16:42:44;11.90;;;10.40;;
68050;SDS011;54839;51.364;7.246;2023-02-22T16:45:13;10.53;;;9.43;;
68050;SDS011;54839;51.364;7.246;2023-02-22T16:47:40;13.03;;;10.60;;
68050;SDS011;54839;51.364;7.246;2023-02-22T16:50:06;13.47;;;10.80;;
68050;SDS011;54839;51.364;7.246;2023-02-22T16:52:32;15.50;;;9.83;;
68050;SDS011;54839;51.364;7.246;2023-02-22T16:54:57;15.17;;;10.87;;
68050;SDS011;54839;51.364;7.246;2023-02-22T16:57:25;13.43;;;10.70;;
68050;SDS011;54839;51.364;7.246;2023-02-22T16:59:52;14.97;;;12.30;;
68050;SDS011;54839;51.364;7.246;2023-02-22T17:02:19;15.03;;;10.90;;
68050;SDS011;54839;51.364;7.246;2023-02-22T17:04:45;20.27;;;11.97;;
68050;SDS011;54839;51.364;7.246;2023-02-22T17:07:15;10.93;;;9.83;;
68050;SDS011;54839;51.364;7.246;2023-02-22T17:09:42;13.53;;;11.07;;
68050;SDS011;54839;51.364;7.246;2023-02-22T17:12:08;13.57;;;11.23;;
68050;SDS011;54839;51.364;7.246;2023-02-22T17:14:34;13.37;;;10.70;;
68050;SDS011;54839;51.364;7.246;2023-02-22T17:17:00;18.50;;;12.40;;
68050;SDS011;54839;51.364;7.246;2023-02-22T17:19:26;16.43;;;12.00;;
68050;SDS011;54839;51.364;7.246;2023-02-22T17:21:51;15.10;;;12.80;;
68050;SDS011;54839;51.364;7.246;2023-02-22T17:24:18;12.90;;;11.33;;
68050;SDS011;54839;51.364;7.246;2023-02-22T17:26:46;16.77;;;11.70;;
68050;SDS011;54839;51.364;7.246;2023-02-22T17:29:12;16.73;;;12.60;;
68050;SDS011;54839;51.364;7.246;2023-02-22T17:31:39;14.47;;;12.07;;